Time;durP1;ratioP1;P1;durP2;ratioP2;P2;SDS_P1;SDS_P2;PMS_P1;PMS_P2;Temp;Humidity;BMP_temperature;BMP_pressure;BME280_temperature;BME280_humidity;BME280_pressure;Samples;Min_cycle;Max_cycle;Signal;HPM_P1;HPM_P2
2024/02/07 00:01:39;;;;;;;12.00;6.05;;;;;;;10.45;40.00;94565.53;4186072;28;20055;-68
2024/02/07 00:03:42;;;;;;;11.13;6.15;;;;;;;10.21;40.19;94568.88;4170082;28;20063;-68
2024/02/07 00:05:44;;;;;;;12.38;6.60;;;;;;;9.97;41.47;94567.03;4177618;28;20666;-68
2024/02/07 00:07:46;;;;;;;11.73;6.30;;;;;;;10.00;41.13;94559.69;4161540;28;20046;-68
2024/02/07 00:09:48;;;;;;;12.55;6.15;;;;;;;9.99;40.77;94565.88;4160656;28;20041;-69
2024/02/07 00:11:50;;;;;;;9.82;6.10;;;;;;;10.03;41.35;94556.72;4161732;28;20049;-69
2024/02/07 00:13:52;;;;;;;11.48;6.82;;;;;;;10.10;41.22;94558.72;4178218;28;20067;-69
2024/02/07 00:15:54;;;;;;;10.38;6.07;;;;;;;10.10;41.21;94567.38;4159901;28;20053;-67
2024/02/07 00:20:54;;;;;;;11.00;6.35;;;;;;;9.92;41.83;94566.69;4175490;28;20048;-69
2024/02/07 00:22:56;;;;;;;9.55;5.82;;;;;;;9.97;41.46;94561.78;4180997;28;20052;-69
2024/02/07 00:24:58;;;;;;;15.93;6.07;;;;;;;9.98;40.94;94559.03;4172773;28;20044;-68
2024/02/07 00:27:00;;;;;;;7.97;5.50;;;;;;;9.88;41.66;94562.75;4165869;28;20301;-68
2024/02/07 00:29:02;;;;;;;7.15;5.30;;;;;;;9.86;41.59;94564.69;4174408;28;20075;-69
2024/02/07 00:31:05;;;;;;;10.25;5.65;;;;;;;9.77;42.09;94564.66;4156831;28;20262;-69
2024/02/07 00:33:07;;;;;;;12.10;5.82;;;;;;;9.70;41.82;94563.66;4170180;28;20060;-69
2024/02/07 00:35:09;;;;;;;11.70;6.00;;;;;;;9.69;41.82;94559.38;4175531;28;20056;-70
2024/02/07 00:37:11;;;;;;;11.93;6.68;;;;;;;9.77;42.22;94566.47;4159706;28;20063;-69
2024/02/07 00:39:12;;;;;;;11.20;5.80;;;;;;;9.75;42.19;94558.75;4158118;28;20048;-67
2024/02/07 00:41:21;;;;;;;11.05;5.93;;;;;;;9.54;42.52;94560.94;4178969;28;20055;-68
2024/02/07 00:43:23;;;;;;;11.32;5.40;;;;;;;9.58;42.32;94557.06;4166529;28;20067;-70
2024/02/07 00:45:25;;;;;;;10.75;5.65;;;;;;;9.66;42.18;94554.47;4175990;28;20060;-69
2024/02/07 00:47:27;;;;;;;12.18;6.47;;;;;;;9.68;42.28;94549.91;4157619;28;20061;-67
2024/02/07 00:49:29;;;;;;;9.68;5.38;;;;;;;9.79;42.80;94547.00;4173451;28;20099;-69
2024/02/07 00:51:31;;;;;;;9.45;6.07;;;;;;;9.92;41.94;94551.78;4173808;28;20760;-69
2024/02/07 00:53:32;;;;;;;11.73;5.53;;;;;;;9.88;42.19;94542.63;4181452;28;20044;-66
2024/02/07 00:55:34;;;;;;;9.30;5.60;;;;;;;9.97;42.31;94540.84;4178769;28;20154;-69
2024/02/07 00:57:37;;;;;;;10.43;6.20;;;;;;;10.04;41.43;94537.44;4175211;28;20053;-68
2024/02/07 00:59:38;;;;;;;10.05;5.68;;;;;;;10.12;41.31;94535.81;4160302;28;20056;-66
2024/02/07 01:01:40;;;;;;;8.60;5.55;;;;;;;10.25;41.73;94531.75;4149330;28;20543;-70
2024/02/07 01:03:42;;;;;;;13.55;6.47;;;;;;;10.31;41.20;94530.31;4173474;28;20137;-68
2024/02/07 01:05:44;;;;;;;9.00;5.53;;;;;;;10.33;41.05;94525.75;4175677;28;20053;-70
2024/02/07 01:07:46;;;;;;;8.93;5.95;;;;;;;10.30;41.08;94525.25;4142022;28;20086;-69
2024/02/07 01:09:48;;;;;;;9.48;5.80;;;;;;;10.25;41.07;94534.38;4180902;28;20075;-69
2024/02/07 01:11:51;;;;;;;12.50;6.30;;;;;;;10.14;41.45;94531.25;4162116;28;20491;-67
2024/02/07 01:13:52;;;;;;;8.20;5.47;;;;;;;10.08;41.88;94530.06;4158021;28;20050;-68
2024/02/07 01:15:54;;;;;;;11.27;6.28;;;;;;;9.95;41.76;94527.09;4181688;28;21126;-69
2024/02/07 01:17:56;;;;;;;12.10;5.45;;;;;;;9.71;42.36;94536.50;4159437;28;20115;-69
2024/02/07 01:19:58;;;;;;;8.20;5.20;;;;;;;9.56;42.82;94536.28;4175779;28;20045;-67
2024/02/07 01:22:00;;;;;;;9.40;5.43;;;;;;;9.61;43.35;94534.03;4187714;28;20045;-67
2024/02/07 01:24:06;;;;;;;11.27;5.47;;;;;;;9.57;42.72;94535.31;4178377;28;20048;-69
2024/02/07 01:26:08;;;;;;;10.98;6.00;;;;;;;9.46;42.85;94530.34;4140662;28;20118;-69
2024/02/07 01:28:12;;;;;;;11.65;5.80;;;;;;;9.42;43.39;94532.47;4171041;28;20068;-68
2024/02/07 01:30:14;;;;;;;10.38;6.03;;;;;;;9.38;43.26;94522.47;4171676;28;20686;-68
2024/02/07 01:32:16;;;;;;;9.45;5.53;;;;;;;9.41;43.50;94509.91;4177120;28;20496;-67
2024/02/07 01:34:18;;;;;;;10.63;5.95;;;;;;;9.53;43.14;94507.84;4172925;28;20060;-67
2024/02/07 01:36:22;;;;;;;7.95;4.70;;;;;;;9.55;43.00;94512.88;4184589;28;20079;-69
2024/02/07 01:38:24;;;;;;;;;;;;;;;9.53;43.31;94507.00;4167954;28;20057;-69
2024/02/07 01:40:26;;;;;;;9.38;5.57;;;;;;;9.50;42.92;94500.28;4177392;28;19924;-69
2024/02/07 01:42:31;;;;;;;10.50;5.63;;;;;;;9.42;43.00;94503.72;4174680;28;20049;-68
2024/02/07 01:44:34;;;;;;;10.27;5.93;;;;;;;9.15;44.06;94496.88;4156864;28;20054;-68
2024/02/07 01:46:36;;;;;;;10.00;5.55;;;;;;;9.22;44.26;94500.50;4177152;28;20063;-69
2024/02/07 01:48:39;;;;;;;8.00;5.68;;;;;;;9.28;44.15;94493.81;4175147;28;20088;-66
2024/02/07 01:50:41;;;;;;;7.65;5.95;;;;;;;9.35;43.63;94497.44;4176853;28;20049;-68
2024/02/07 01:52:45;;;;;;;9.77;6.25;;;;;;;9.49;43.42;94485.59;4177071;28;20135;-67
2024/02/07 01:54:47;;;;;;;10.27;6.18;;;;;;;9.55;43.29;94489.34;4179745;28;20048;-68
2024/02/07 01:56:49;;;;;;;9.73;5.82;;;;;;;9.45;43.77;94493.91;4179055;28;20068;-68
2024/02/07 01:58:51;;;;;;;10.00;6.47;;;;;;;9.49;43.84;94490.00;4175822;28;20053;-68
2024/02/07 02:00:53;;;;;;;11.98;6.10;;;;;;;9.54;43.29;94493.78;4162401;28;20061;-68
2024/02/07 02:02:55;;;;;;;9.90;5.75;;;;;;;9.55;43.39;94489.34;4177817;28;20068;-68
2024/02/07 02:04:57;;;;;;;12.13;6.15;;;;;;;9.62;43.95;94495.63;4178106;28;20049;-68
2024/02/07 02:06:59;;;;;;;8.43;5.97;;;;;;;9.70;43.39;94500.88;4178580;28;20944;-68
2024/02/07 02:09:05;;;;;;;9.63;5.93;;;;;;;9.56;44.04;94498.84;4175491;28;20051;-71
2024/02/07 02:11:09;;;;;;;13.52;6.82;;;;;;;9.45;44.02;94497.34;4186050;28;20477;-69
2024/02/07 02:13:11;;;;;;;8.70;6.35;;;;;;;9.51;43.92;94488.06;4136033;28;20054;-69
2024/02/07 02:15:13;;;;;;;12.00;6.13;;;;;;;9.36;44.69;94491.25;4176900;28;20128;-69
2024/02/07 02:17:15;;;;;;;9.90;6.03;;;;;;;9.39;45.00;94492.72;4182155;28;20049;-69
2024/02/07 02:19:17;;;;;;;10.48;5.93;;;;;;;9.36;44.50;94491.25;4172944;28;20047;-68
2024/02/07 02:21:24;;;;;;;8.97;6.60;;;;;;;9.37;44.08;94492.06;4161088;28;20049;-69
2024/02/07 02:23:34;;;;;;;11.20;6.70;;;;;;;9.34;45.10;94497.63;4176091;28;20085;-68
2024/02/07 02:26:01;;;;;;;10.63;6.32;;;;;;;9.39;44.62;94500.56;4178633;28;20075;-68
2024/02/07 02:28:03;;;;;;;11.80;6.43;;;;;;;9.27;44.84;94502.66;4180989;28;20392;-68
2024/02/07 02:30:19;;;;;;;8.25;5.75;;;;;;;8.97;45.70;94496.09;4175778;28;20049;-68
2024/02/07 02:32:22;;;;;;;9.73;6.00;;;;;;;8.74;46.23;94498.41;4179097;28;20272;-70
2024/02/07 02:34:26;;;;;;;11.70;6.30;;;;;;;8.79;46.21;94498.75;4147548;28;20050;-68
2024/02/07 02:36:28;;;;;;;16.73;7.07;;;;;;;8.85;46.25;94492.94;4178076;28;20104;-67
2024/02/07 02:38:33;;;;;;;13.43;7.35;;;;;;;8.89;45.51;94498.69;4181084;28;20056;-69
2024/02/07 02:40:35;;;;;;;10.60;6.40;;;;;;;8.95;45.96;94495.47;4155614;28;20446;-68
2024/02/07 02:44:57;;;;;;;12.38;6.50;;;;;;;9.12;45.52;94483.28;4177995;28;20053;-68
2024/02/07 02:47:01;;;;;;;9.13;6.25;;;;;;;9.28;45.02;94493.00;4166568;28;20057;-68
2024/02/07 02:49:03;;;;;;;;;;;;;;;9.39;45.23;94496.16;4165706;28;20129;-68
2024/02/07 02:51:05;;;;;;;9.93;6.25;;;;;;;9.41;44.94;94490.78;4189212;28;19924;-70
2024/02/07 02:53:07;;;;;;;11.43;7.03;;;;;;;9.41;45.01;94494.22;4165511;28;20490;-70
2024/02/07 02:55:12;;;;;;;10.57;6.35;;;;;;;9.45;45.14;94494.72;4184484;28;20191;-69
2024/02/07 02:57:16;;;;;;;12.85;7.00;;;;;;;9.47;44.77;94497.19;4191196;28;20124;-68
2024/02/07 02:59:18;;;;;;;10.23;6.82;;;;;;;9.53;44.92;94491.31;4157886;28;20041;-67
2024/02/07 03:01:20;;;;;;;9.27;5.95;;;;;;;9.57;44.61;94484.78;4144450;28;20396;-69
2024/02/07 03:03:23;;;;;;;12.90;6.25;;;;;;;9.64;45.15;94478.78;4180236;28;20402;-67
2024/02/07 03:05:58;;;;;;;11.43;6.53;;;;;;;9.62;44.66;94482.53;4168223;28;20049;-68
2024/02/07 03:08:04;;;;;;;10.63;6.72;;;;;;;9.50;44.48;94479.38;4168591;28;20048;-70
2024/02/07 03:10:07;;;;;;;11.75;6.70;;;;;;;9.46;45.30;94485.88;4171099;28;20051;-69
2024/02/07 03:12:10;;;;;;;10.27;6.97;;;;;;;9.53;44.68;94488.69;4171633;28;20727;-69
2024/02/07 03:14:12;;;;;;;10.13;6.85;;;;;;;9.54;44.87;94483.31;4177287;28;20277;-69
2024/02/07 03:16:14;;;;;;;13.63;7.30;;;;;;;9.63;44.51;94492.00;4178035;28;20045;-68
2024/02/07 03:18:16;;;;;;;11.30;6.20;;;;;;;9.57;44.48;94488.25;4176041;28;20060;-69
2024/02/07 03:20:18;;;;;;;10.43;6.25;;;;;;;9.40;45.68;94499.63;4159311;28;20115;-68
2024/02/07 03:22:20;;;;;;;9.77;6.72;;;;;;;9.39;45.76;94487.50;4190144;28;20392;-69
2024/02/07 03:24:21;;;;;;;12.77;6.60;;;;;;;9.28;46.15;94495.63;4166351;28;20056;-70
2024/02/07 03:26:23;;;;;;;12.63;7.05;;;;;;;9.07;45.87;94485.56;4185447;28;20049;-70
2024/02/07 03:28:25;;;;;;;11.13;7.32;;;;;;;9.01;46.52;94485.22;4180063;28;20408;-70
2024/02/07 03:30:28;;;;;;;13.00;6.80;;;;;;;9.08;46.36;94485.41;4166774;28;21119;-68
2024/02/07 03:32:30;;;;;;;13.18;7.55;;;;;;;9.09;46.26;94484.41;4177085;28;20055;-68
2024/02/07 03:34:32;;;;;;;15.25;7.30;;;;;;;9.16;46.07;94484.59;4175102;28;20695;-69
2024/02/07 03:36:34;;;;;;;13.63;7.30;;;;;;;9.01;45.98;94473.91;4168727;28;20473;-69
2024/02/07 03:38:36;;;;;;;13.65;7.13;;;;;;;8.88;46.56;94479.56;4175368;28;20053;-67
2024/02/07 03:40:38;;;;;;;11.85;7.50;;;;;;;8.58;47.72;94476.44;4177792;28;20045;-68
2024/02/07 03:42:41;;;;;;;16.55;6.95;;;;;;;8.50;47.63;94478.97;4171503;28;20088;-69
2024/02/07 03:44:43;;;;;;;12.20;7.38;;;;;;;8.59;47.24;94472.84;4159466;28;20081;-66
2024/02/07 03:46:45;;;;;;;12.93;7.03;;;;;;;8.72;47.78;94471.63;4176566;28;20064;-68
2024/02/07 03:48:47;;;;;;;13.45;7.00;;;;;;;8.81;47.25;94466.28;4176329;28;20528;-69
2024/02/07 03:50:49;;;;;;;19.17;7.13;;;;;;;8.92;46.78;94473.03;4176876;28;20456;-68
2024/02/07 03:52:51;;;;;;;12.65;6.93;;;;;;;8.98;47.14;94479.47;4164019;28;20053;-68
2024/02/07 03:54:53;;;;;;;11.68;7.22;;;;;;;8.93;46.99;94474.69;4177878;28;20140;-69
2024/02/07 03:56:54;;;;;;;11.18;6.90;;;;;;;8.91;47.64;94468.00;4177516;28;20049;-68
2024/02/07 03:59:02;;;;;;;11.88;7.38;;;;;;;8.92;47.06;94475.66;4180480;28;20079;-68
2024/02/07 04:01:04;;;;;;;12.05;6.95;;;;;;;8.95;46.68;94475.38;4180408;28;20041;-68
2024/02/07 04:03:06;;;;;;;14.73;6.95;;;;;;;8.95;46.67;94461.50;4179167;28;20461;-68
2024/02/07 04:05:08;;;;;;;14.68;6.43;;;;;;;8.98;46.65;94461.16;4181685;28;20080;-69
2024/02/07 04:07:10;;;;;;;15.27;6.97;;;;;;;9.01;46.46;94461.69;4183252;28;20041;-67
2024/02/07 04:09:18;;;;;;;12.25;6.63;;;;;;;9.07;46.01;94460.22;4175815;28;20045;-69
2024/02/07 05:16:29;;;;;;;14.80;6.55;;;;;;;8.68;49.71;94438.97;4178254;28;20111;-70
2024/02/07 05:18:33;;;;;;;10.60;5.60;;;;;;;8.74;49.67;94435.72;4157150;28;20057;-69
2024/02/07 05:20:35;;;;;;;13.50;5.90;;;;;;;8.86;49.60;94436.28;4159543;28;20433;-69
2024/02/07 05:22:37;;;;;;;14.65;5.63;;;;;;;8.89;49.37;94434.19;4164136;28;20484;-68
2024/02/07 05:24:40;;;;;;;13.52;6.15;;;;;;;8.94;49.12;94434.53;4164448;28;20136;-71
2024/02/07 05:26:41;;;;;;;9.95;6.07;;;;;;;8.87;49.00;94441.34;4161512;28;20053;-71
2024/02/07 05:28:44;;;;;;;12.48;5.68;;;;;;;8.88;48.89;94442.97;4178310;28;20048;-70
2024/02/07 05:30:46;;;;;;;19.60;6.50;;;;;;;8.93;49.26;94447.75;4181450;28;20159;-68
2024/02/07 05:32:48;;;;;;;14.68;5.85;;;;;;;8.90;49.34;94451.47;4163683;28;20632;-71
2024/02/07 05:34:50;;;;;;;15.23;6.10;;;;;;;8.81;49.36;94455.03;4164505;28;20049;-70
2024/02/07 05:36:52;;;;;;;18.83;6.40;;;;;;;8.75;49.47;94443.41;4180957;28;20265;-70
2024/02/07 05:38:56;;;;;;;16.70;6.38;;;;;;;8.65;49.48;94441.84;4161710;28;20382;-69
2024/02/07 05:40:59;;;;;;;13.32;6.53;;;;;;;8.69;50.00;94448.41;4182448;28;20381;-71
2024/02/07 05:43:02;;;;;;;12.02;5.68;;;;;;;8.68;50.21;94450.22;4175831;28;20518;-71
2024/02/07 05:45:04;;;;;;;17.45;7.20;;;;;;;8.48;50.12;94441.75;4166784;28;20049;-69
2024/02/07 05:47:06;;;;;;;17.00;6.90;;;;;;;8.51;50.38;94444.06;4182166;28;20041;-69
2024/02/07 05:49:08;;;;;;;21.55;7.50;;;;;;;8.60;50.50;94440.56;4180674;28;20086;-70
2024/02/07 05:51:20;;;;;;;20.65;7.65;;;;;;;8.64;50.07;94435.00;4183182;28;20055;-71
2024/02/07 05:53:22;;;;;;;26.80;7.57;;;;;;;8.68;49.99;94441.56;4181462;28;20103;-71
2024/02/07 05:55:24;;;;;;;15.65;7.00;;;;;;;8.68;49.80;94447.59;4184089;28;20040;-69
2024/02/07 05:57:26;;;;;;;25.08;7.43;;;;;;;8.73;50.25;94447.97;4180845;28;20076;-70
2024/02/07 05:59:28;;;;;;;17.58;7.78;;;;;;;8.52;50.94;94444.91;4176552;28;20053;-69
2024/02/07 06:01:29;;;;;;;19.80;7.70;;;;;;;8.35;51.31;94454.38;4189616;28;20484;-70
2024/02/07 06:03:32;;;;;;;28.23;9.40;;;;;;;8.41;51.26;94453.78;4179284;28;20079;-71
2024/02/07 06:05:34;;;;;;;40.45;9.93;;;;;;;8.40;51.47;94452.94;4165609;28;20045;-68
2024/02/07 06:07:36;;;;;;;38.13;10.35;;;;;;;8.34;52.00;94458.75;4160566;28;20121;-70
2024/02/07 06:09:38;;;;;;;30.60;12.07;;;;;;;8.53;51.67;94454.34;4186540;28;20045;-71
2024/02/07 06:11:44;;;;;;;32.53;11.52;;;;;;;8.68;50.46;94458.03;4194693;28;20571;-69
2024/02/07 06:13:46;;;;;;;67.65;13.40;;;;;;;8.67;50.87;94452.97;4163544;28;20041;-72
2024/02/07 06:15:49;;;;;;;49.60;12.13;;;;;;;8.73;55.79;94462.81;4191841;28;20695;-71
2024/02/07 06:17:51;;;;;;;32.28;12.52;;;;;;;8.80;54.89;94461.25;4194004;28;20392;-71
2024/02/07 06:19:53;;;;;;;33.67;12.18;;;;;;;8.86;52.95;94457.16;4188384;28;20155;-71
2024/02/07 06:21:55;;;;;;;21.83;11.20;;;;;;;8.89;53.26;94455.09;4170725;28;20051;-72
2024/02/07 06:23:57;;;;;;;29.25;13.00;;;;;;;8.94;51.83;94468.50;4164592;28;20053;-70
2024/02/07 06:25:59;;;;;;;24.13;12.48;;;;;;;9.01;50.41;94463.47;4167938;28;20041;-71
2024/02/07 06:28:01;;;;;;;28.38;13.80;;;;;;;9.05;49.72;94463.97;4160517;28;20141;-72
2024/02/07 06:30:03;;;;;;;24.05;11.27;;;;;;;9.01;49.94;94461.69;4167900;28;20051;-69
2024/02/07 06:32:05;;;;;;;26.67;10.85;;;;;;;9.07;49.82;94464.66;4194032;28;20106;-71
2024/02/07 06:34:07;;;;;;;25.50;10.63;;;;;;;9.09;50.18;94473.16;4174807;28;20056;-72
2024/02/07 06:36:10;;;;;;;18.75;9.77;;;;;;;9.13;49.66;94475.28;4174044;28;20393;-72
2024/02/07 06:38:11;;;;;;;19.95;9.35;;;;;;;9.21;49.43;94470.13;4176320;28;20088;-70
2024/02/07 06:40:13;;;;;;;23.30;9.57;;;;;;;9.33;50.30;94462.78;4176689;28;20045;-68
2024/02/07 06:42:15;;;;;;;27.63;9.45;;;;;;;9.28;49.85;94467.69;4173833;28;20083;-72
2024/02/07 06:44:17;;;;;;;24.08;9.52;;;;;;;9.38;49.18;94463.16;4179543;28;20040;-71
2024/02/07 06:46:19;;;;;;;22.27;10.98;;;;;;;9.49;49.32;94469.09;4175277;28;20079;-70
2024/02/07 06:48:21;;;;;;;677.63;380.85;;;;;;;9.55;49.90;94471.06;4153791;28;20100;-71
2024/02/07 06:50:24;;;;;;;66.90;33.83;;;;;;;9.74;49.47;94472.59;4177083;28;20068;-70
2024/02/07 06:52:25;;;;;;;27.08;14.23;;;;;;;9.86;48.96;94467.88;4176750;28;20056;-71
2024/02/07 06:54:27;;;;;;;888.30;483.60;;;;;;;9.95;51.51;94465.13;4150275;28;20104;-70
2024/02/07 06:56:29;;;;;;;485.98;220.38;;;;;;;10.03;49.71;94465.13;4177061;28;20111;-69
2024/02/07 06:58:32;;;;;;;227.63;103.75;;;;;;;10.08;49.13;94458.59;4183938;28;20053;-71
2024/02/07 07:00:35;;;;;;;48.05;22.15;;;;;;;10.11;48.34;94459.09;4165060;28;20472;-70
2024/02/07 07:02:36;;;;;;;35.92;12.02;;;;;;;10.25;48.04;94461.06;4187548;28;20533;-71
2024/02/07 07:04:38;;;;;;;22.88;8.98;;;;;;;10.37;47.46;94456.38;4179879;28;20064;-71
2024/02/07 07:06:40;;;;;;;23.02;8.30;;;;;;;10.43;47.49;94457.50;4177363;28;20552;-71
2024/02/07 07:08:42;;;;;;;21.83;9.55;;;;;;;10.49;47.47;94461.25;4179397;28;20084;-70
2024/02/07 07:10:44;;;;;;;24.10;10.10;;;;;;;10.07;47.98;94463.03;4180274;28;20059;-70
2024/02/07 07:12:46;;;;;;;32.40;11.95;;;;;;;9.98;48.49;94461.34;4179396;28;20107;-72
2024/02/07 07:14:48;;;;;;;29.55;10.98;;;;;;;9.88;49.15;94458.91;4184905;28;20076;-70
2024/02/07 07:16:50;;;;;;;27.35;10.70;;;;;;;9.70;50.40;94461.66;4148976;28;20489;-71
2024/02/07 07:18:53;;;;;;;30.27;12.35;;;;;;;9.62;50.04;94461.63;4157489;28;20053;-70
2024/02/07 07:20:55;;;;;;;39.33;12.83;;;;;;;9.72;49.79;94458.84;4176363;28;20049;-70
2024/02/07 07:22:57;;;;;;;29.63;12.25;;;;;;;9.79;49.88;94463.28;4173740;28;20747;-71
2024/02/07 07:25:15;;;;;;;30.45;11.85;;;;;;;9.85;49.47;94459.19;4178797;28;20045;-72
2024/02/07 07:27:18;;;;;;;18.80;7.45;;;;;;;9.99;49.17;94460.38;4179129;28;20064;-70
2024/02/07 07:29:19;;;;;;;19.70;8.15;;;;;;;10.11;49.37;94446.03;4172986;28;20499;-70
2024/02/07 07:31:21;;;;;;;13.57;7.18;;;;;;;10.27;48.83;94442.56;4169362;28;20144;-69
2024/02/07 07:33:24;;;;;;;22.38;7.57;;;;;;;10.41;48.76;94455.06;4169332;28;20049;-70
2024/02/07 07:35:25;;;;;;;17.52;8.13;;;;;;;10.47;48.62;94450.94;4157237;28;20497;-72
2024/02/07 07:37:27;;;;;;;13.13;7.55;;;;;;;10.67;48.08;94448.81;4170440;28;20508;-70
2024/02/07 07:39:29;;;;;;;15.32;7.22;;;;;;;10.83;47.75;94453.22;4163360;28;20045;-69
2024/02/07 07:41:31;;;;;;;25.92;10.80;;;;;;;10.92;47.67;94451.38;4166684;28;20079;-70
2024/02/07 07:43:35;;;;;;;27.65;13.20;;;;;;;10.94;47.11;94455.47;4176762;28;20053;-71
2024/02/07 07:45:37;;;;;;;50.03;13.85;;;;;;;10.71;47.80;94450.13;4180536;28;20045;-69
2024/02/07 07:47:39;;;;;;;45.78;14.15;;;;;;;10.68;48.09;94450.44;4163739;28;20107;-70
2024/02/07 07:49:41;;;;;;;30.77;14.32;;;;;;;10.60;47.92;94440.81;4161736;28;20037;-70
2024/02/07 07:51:43;;;;;;;38.53;13.85;;;;;;;10.49;48.15;94441.13;4184096;28;20041;-71
2024/02/07 07:53:48;;;;;;;34.13;13.82;;;;;;;10.69;47.93;94448.63;4183629;28;20506;-71
2024/02/07 07:55:50;;;;;;;37.05;12.80;;;;;;;10.74;47.99;94438.50;4152883;28;20081;-72
2024/02/07 07:57:52;;;;;;;28.65;13.52;;;;;;;10.85;48.05;94440.75;4174816;28;20053;-70
2024/02/07 07:59:54;;;;;;;25.40;11.25;;;;;;;11.05;47.77;94441.19;4186759;28;20056;-72
2024/02/07 08:02:00;;;;;;;27.90;10.63;;;;;;;11.16;47.33;94432.97;4190645;28;20045;-71
2024/02/07 08:04:02;;;;;;;40.72;12.93;;;;;;;11.23;47.35;94435.75;4161400;28;20136;-71
2024/02/07 08:06:04;;;;;;;26.27;11.10;;;;;;;11.36;47.30;94427.34;4168616;28;20484;-69
2024/02/07 08:08:07;;;;;;;17.73;9.65;;;;;;;11.51;47.03;94423.00;4181248;28;20522;-71
2024/02/07 08:10:10;;;;;;;26.88;11.60;;;;;;;11.65;46.69;94417.03;4171571;28;20722;-70
2024/02/07 08:12:14;;;;;;;31.42;12.60;;;;;;;11.74;46.16;94420.41;4180594;28;20048;-71
2024/02/07 08:14:16;;;;;;;18.05;9.20;;;;;;;11.52;47.35;94411.53;4163917;28;20053;-71
2024/02/07 08:16:18;;;;;;;19.38;10.35;;;;;;;11.57;47.48;94411.84;4186785;28;20120;-69
2024/02/07 08:18:20;;;;;;;15.55;7.07;;;;;;;11.62;47.64;94417.38;4137429;28;20050;-72
2024/02/07 08:20:24;;;;;;;19.17;9.05;;;;;;;11.59;48.22;94412.47;4158181;28;20053;-70
2024/02/07 08:22:27;;;;;;;;;;;;;;;11.77;48.06;94404.34;4155365;28;20073;-70
2024/02/07 13:39:33;;;;;;;6.10;3.10;;;;;;;16.76;31.39;94032.59;4232640;28;20091;-69
2024/02/07 13:41:35;;;;;;;6.45;3.20;;;;;;;16.81;31.30;94033.84;4219836;28;20524;-73
2024/02/07 13:43:37;;;;;;;6.35;3.25;;;;;;;16.81;31.30;94036.47;4225883;28;20058;-69
2024/02/07 13:45:39;;;;;;;10.02;3.60;;;;;;;16.94;31.60;94034.53;4240537;28;20217;-72
2024/02/07 13:47:41;;;;;;;11.38;5.13;;;;;;;16.01;38.02;94044.78;4223357;28;20043;-72
2024/02/07 13:49:43;;;;;;;13.05;5.68;;;;;;;15.62;39.35;94052.53;4227104;28;20209;-70
2024/02/07 13:51:45;;;;;;;10.25;5.38;;;;;;;15.13;40.71;94059.88;4229593;28;20062;-71
2024/02/07 13:53:47;;;;;;;15.38;5.07;;;;;;;14.89;41.48;94065.75;4223979;28;20044;-74
2024/02/07 13:55:50;;;;;;;17.73;6.13;;;;;;;14.93;41.40;94057.22;4217805;28;20141;-71
2024/02/07 13:57:53;;;;;;;18.92;5.03;;;;;;;15.02;41.26;94055.22;4241021;28;20047;-74
2024/02/07 13:59:55;;;;;;;11.35;4.90;;;;;;;14.97;41.66;94052.38;4242419;28;20474;-71
2024/02/07 14:01:59;;;;;;;13.52;5.38;;;;;;;15.07;41.85;94042.22;4237213;28;20427;-72
2024/02/07 14:04:03;;;;;;;16.75;4.85;;;;;;;15.10;41.41;94039.19;4238830;28;20078;-74
2024/02/07 14:06:06;;;;;;;13.45;4.78;;;;;;;15.27;40.88;94038.75;4234856;27;20512;-74
2024/02/07 14:08:08;;;;;;;10.18;4.93;;;;;;;15.42;39.01;94046.47;4237349;28;20040;-73
2024/02/07 14:10:10;;;;;;;11.57;4.20;;;;;;;15.63;36.33;94048.06;4236218;28;20043;-72
2024/02/07 14:12:12;;;;;;;10.25;4.00;;;;;;;15.77;35.63;94034.66;4234444;28;20171;-70
2024/02/07 14:14:14;;;;;;;9.98;4.90;;;;;;;15.80;39.40;94045.84;4237038;27;20054;-74
2024/02/07 14:16:16;;;;;;;11.30;5.15;;;;;;;15.59;40.30;94033.66;4235306;28;20051;-73
2024/02/07 14:18:18;;;;;;;10.27;4.97;;;;;;;15.56;40.31;94035.69;4212325;28;20079;-74
2024/02/07 14:20:20;;;;;;;17.27;5.82;;;;;;;15.53;39.96;94036.13;4230747;27;20503;-75
2024/02/07 14:22:22;;;;;;;9.15;4.60;;;;;;;15.61;38.50;94042.19;4242426;27;20055;-72
2024/02/07 14:24:24;;;;;;;9.23;3.80;;;;;;;15.69;35.71;94031.41;4239312;27;20118;-74
2024/02/07 14:26:26;;;;;;;9.93;3.67;;;;;;;15.82;34.52;94030.59;4245671;27;20104;-74
2024/02/07 14:28:28;;;;;;;8.52;4.28;;;;;;;15.97;34.22;94028.50;4238387;27;20048;-72
2024/02/07 14:30:30;;;;;;;11.48;4.30;;;;;;;16.02;33.63;94028.69;4243377;27;20482;-72
2024/02/07 14:32:32;;;;;;;13.88;5.70;;;;;;;16.13;34.27;94032.50;4241025;27;20110;-74
2024/02/07 14:34:33;;;;;;;8.68;4.13;;;;;;;16.22;33.62;94031.28;4241936;27;20035;-74
2024/02/07 14:36:36;;;;;;;17.55;6.28;;;;;;;16.28;34.66;94026.97;4243141;27;20055;-75
2024/02/07 14:38:38;;;;;;;7.82;4.05;;;;;;;16.28;33.42;94025.16;4241882;27;20096;-75
2024/02/07 14:40:40;;;;;;;13.70;5.90;;;;;;;16.04;36.37;94036.41;4239054;27;20113;-72
2024/02/07 14:42:42;;;;;;;14.80;6.50;;;;;;;15.83;37.79;94038.31;4244711;27;20134;-74
2024/02/07 14:44:44;;;;;;;15.23;6.68;;;;;;;15.72;39.36;94037.13;4224687;28;20087;-72
2024/02/07 14:46:46;;;;;;;14.45;7.47;;;;;;;15.61;40.24;94032.44;4240306;27;20048;-72
2024/02/07 14:48:48;;;;;;;23.42;7.65;;;;;;;15.55;40.38;94035.88;4240424;27;20374;-73
2024/02/07 14:50:50;;;;;;;15.30;6.50;;;;;;;14.95;42.13;94035.94;4239560;27;20094;-72
2024/02/07 14:52:52;;;;;;;14.10;6.03;;;;;;;14.69;42.69;94042.81;4244630;27;20051;-74
2024/02/07 14:54:54;;;;;;;20.70;7.15;;;;;;;14.66;43.04;94037.91;4243402;27;20475;-77
2024/02/07 14:57:15;;;;;;;15.30;5.85;;;;;;;14.33;43.95;94043.09;4244130;27;20508;-76
2024/02/07 14:59:22;;;;;;;13.45;5.55;;;;;;;14.29;44.07;94039.22;4245250;27;20043;-74
2024/02/07 15:01:24;;;;;;;14.90;6.10;;;;;;;14.09;44.95;94042.59;4234495;27;20394;-78
2024/02/07 15:03:27;;;;;;;17.17;5.35;;;;;;;14.09;44.85;94032.06;4243930;27;20488;-71
2024/02/07 15:05:29;;;;;;;11.00;4.95;;;;;;;14.10;45.05;94033.69;4244664;27;20053;-73
2024/02/07 15:07:31;;;;;;;15.07;6.20;;;;;;;14.12;44.78;94036.13;4241310;27;20055;-78
2024/02/07 15:09:33;;;;;;;13.68;5.80;;;;;;;14.01;45.07;94039.31;4239041;27;20457;-72
2024/02/07 15:11:34;;;;;;;17.15;6.63;;;;;;;13.93;45.39;94038.47;4237102;27;20049;-72
2024/02/07 15:13:36;;;;;;;13.38;6.03;;;;;;;14.03;45.42;94030.22;4239194;27;20072;-74
2024/02/07 15:15:38;;;;;;;16.33;7.13;;;;;;;14.03;45.20;94034.69;4244252;27;20481;-75
2024/02/07 15:17:44;;;;;;;18.25;7.97;;;;;;;14.05;45.23;94035.28;4245358;27;20043;-74
2024/02/07 15:19:46;;;;;;;14.10;6.88;;;;;;;13.86;45.44;94027.09;4244558;27;20073;-73
2024/02/07 15:21:48;;;;;;;23.25;8.50;;;;;;;13.91;45.52;94027.31;4224481;28;20104;-72
2024/02/07 15:23:50;;;;;;;14.32;6.28;;;;;;;13.89;45.69;94033.78;4241966;27;20190;-78
2024/02/07 15:25:51;;;;;;;13.60;6.20;;;;;;;13.65;45.88;94022.72;4234755;27;20096;-74
2024/02/07 15:27:53;;;;;;;10.98;5.53;;;;;;;13.83;45.69;94021.41;4238773;27;20040;-74
2024/02/07 15:29:56;;;;;;;19.10;5.75;;;;;;;13.96;45.45;94026.75;4240838;27;20138;-80
2024/02/07 15:31:58;;;;;;;14.35;6.57;;;;;;;13.97;45.13;94030.19;4242320;27;20047;-73
2024/02/07 15:34:00;;;;;;;11.02;5.75;;;;;;;13.96;45.02;94031.19;4239289;27;20073;-77
2024/02/07 15:36:02;;;;;;;19.55;6.20;;;;;;;14.07;44.88;94031.44;4231560;27;20047;-74
2024/02/07 15:38:04;;;;;;;11.60;5.00;;;;;;;14.11;44.59;94034.47;4221348;28;20047;-71
2024/02/07 15:40:06;;;;;;;12.63;5.25;;;;;;;14.19;44.29;94031.69;4243379;27;20047;-72
2024/02/07 15:42:08;;;;;;;18.25;6.05;;;;;;;14.25;44.29;94035.34;4242710;27;20096;-76
2024/02/07 15:44:10;;;;;;;17.40;6.93;;;;;;;14.07;44.78;94035.91;4240703;27;20047;-74
2024/02/07 15:46:12;;;;;;;15.73;7.65;;;;;;;14.01;44.93;94047.22;4244184;27;20054;-75
2024/02/07 15:48:14;;;;;;;16.00;8.00;;;;;;;13.83;45.44;94045.94;4244100;27;20146;-72
2024/02/07 15:50:16;;;;;;;23.38;9.40;;;;;;;13.82;45.43;94039.03;4228408;27;20541;-73
2024/02/07 15:52:18;;;;;;;19.60;9.43;;;;;;;13.81;45.77;94041.84;4219610;28;20058;-73
2024/02/07 15:54:20;;;;;;;23.05;10.80;;;;;;;13.91;45.11;94039.66;4235919;27;20508;-73
2024/02/07 15:56:22;;;;;;;26.23;11.90;;;;;;;14.05;44.91;94043.19;4242436;27;20059;-74
2024/02/07 15:58:24;;;;;;;22.20;11.32;;;;;;;14.07;44.99;94046.44;4238399;27;20039;-76
2024/02/07 16:00:25;;;;;;;28.42;11.10;;;;;;;14.10;44.65;94051.31;4243691;27;20053;-74